sensor_id;sensor_type;location;lat;lon;timestamp;P1;durP1;ratioP1;P2;durP2;ratioP2
25938;SDS011;13739;51.172;4.466;2022-08-24T00:01:03;3.85;;;2.33;;
25938;SDS011;13739;51.172;4.466;2022-08-24T00:03:33;2.50;;;2.00;;
25938;SDS011;13739;51.172;4.466;2022-08-24T00:06:00;2.55;;;1.90;;
25938;SDS011;13739;51.172;4.466;2022-08-24T00:08:27;3.10;;;2.10;;
25938;SDS011;13739;51.172;4.466;2022-08-24T00:10:54;2.67;;;1.95;;
25938;SDS011;13739;51.172;4.466;2022-08-24T00:13:24;5.38;;;2.10;;
25938;SDS011;13739;51.172;4.466;2022-08-24T00:15:51;2.55;;;1.80;;
25938;SDS011;13739;51.172;4.466;2022-08-24T00:18:17;2.58;;;1.90;;
25938;SDS011;13739;51.172;4.466;2022-08-24T00:20:46;3.75;;;1.90;;
25938;SDS011;13739;51.172;4.466;2022-08-24T00:23:15;3.28;;;1.90;;
25938;SDS011;13739;51.172;4.466;2022-08-24T00:25:42;2.53;;;1.90;;
25938;SDS011;13739;51.172;4.466;2022-08-24T00:28:08;2.90;;;2.10;;
25938;SDS011;13739;51.172;4.466;2022-08-24T00:30:35;3.85;;;1.90;;
25938;SDS011;13739;51.172;4.466;2022-08-24T00:33:01;2.95;;;1.83;;
25938;SDS011;13739;51.172;4.466;2022-08-24T00:35:27;2.22;;;1.85;;
25938;SDS011;13739;51.172;4.466;2022-08-24T00:37:53;2.13;;;1.60;;
25938;SDS011;13739;51.172;4.466;2022-08-24T00:40:23;2.72;;;1.80;;
25938;SDS011;13739;51.172;4.466;2022-08-24T00:43:00;2.70;;;1.90;;
25938;SDS011;13739;51.172;4.466;2022-08-24T00:45:48;4.63;;;2.15;;
25938;SDS011;13739;51.172;4.466;2022-08-24T00:48:26;3.25;;;2.30;;
25938;SDS011;13739;51.172;4.466;2022-08-24T00:50:57;3.40;;;2.05;;
25938;SDS011;13739;51.172;4.466;2022-08-24T00:56:03;2.70;;;2.05;;
25938;SDS011;13739;51.172;4.466;2022-08-24T00:58:36;3.17;;;2.20;;
25938;SDS011;13739;51.172;4.466;2022-08-24T01:01:07;5.45;;;2.22;;
25938;SDS011;13739;51.172;4.466;2022-08-24T01:03:35;3.10;;;2.05;;
25938;SDS011;13739;51.172;4.466;2022-08-24T01:06:07;6.82;;;2.38;;
25938;SDS011;13739;51.172;4.466;2022-08-24T01:08:34;3.20;;;2.20;;
25938;SDS011;13739;51.172;4.466;2022-08-24T01:11:01;4.05;;;2.30;;
25938;SDS011;13739;51.172;4.466;2022-08-24T01:13:36;5.88;;;2.50;;
25938;SDS011;13739;51.172;4.466;2022-08-24T01:16:04;4.25;;;2.05;;
25938;SDS011;13739;51.172;4.466;2022-08-24T01:18:32;3.75;;;1.85;;
25938;SDS011;13739;51.172;4.466;2022-08-24T01:21:16;3.17;;;2.13;;
25938;SDS011;13739;51.172;4.466;2022-08-24T01:23:58;3.50;;;1.70;;
25938;SDS011;13739;51.172;4.466;2022-08-24T01:26:27;5.15;;;2.10;;
25938;SDS011;13739;51.172;4.466;2022-08-24T01:29:05;3.55;;;2.03;;
25938;SDS011;13739;51.172;4.466;2022-08-24T01:31:35;2.75;;;1.98;;
25938;SDS011;13739;51.172;4.466;2022-08-24T01:34:00;2.90;;;2.00;;
25938;SDS011;13739;51.172;4.466;2022-08-24T01:38:56;5.72;;;2.13;;
25938;SDS011;13739;51.172;4.466;2022-08-24T01:41:26;3.10;;;2.13;;
25938;SDS011;13739;51.172;4.466;2022-08-24T01:43:55;4.78;;;2.10;;
25938;SDS011;13739;51.172;4.466;2022-08-24T01:46:22;4.05;;;2.28;;
25938;SDS011;13739;51.172;4.466;2022-08-24T01:48:47;4.28;;;2.33;;
25938;SDS011;13739;51.172;4.466;2022-08-24T01:51:14;3.30;;;2.42;;
25938;SDS011;13739;51.172;4.466;2022-08-24T01:53:39;3.30;;;2.50;;
25938;SDS011;13739;51.172;4.466;2022-08-24T01:56:05;5.15;;;2.80;;
25938;SDS011;13739;51.172;4.466;2022-08-24T01:58:31;3.90;;;2.92;;
25938;SDS011;13739;51.172;4.466;2022-08-24T02:00:56;3.80;;;2.92;;
25938;SDS011;13739;51.172;4.466;2022-08-24T02:03:22;3.88;;;2.63;;
25938;SDS011;13739;51.172;4.466;2022-08-24T02:05:48;4.75;;;2.72;;
25938;SDS011;13739;51.172;4.466;2022-08-24T02:08:14;5.40;;;3.10;;
25938;SDS011;13739;51.172;4.466;2022-08-24T02:10:40;4.78;;;2.88;;
25938;SDS011;13739;51.172;4.466;2022-08-24T02:13:06;4.75;;;3.05;;
25938;SDS011;13739;51.172;4.466;2022-08-24T02:15:34;5.82;;;2.72;;
25938;SDS011;13739;51.172;4.466;2022-08-24T02:18:04;5.40;;;2.60;;
25938;SDS011;13739;51.172;4.466;2022-08-24T02:20:30;3.95;;;2.30;;
25938;SDS011;13739;51.172;4.466;2022-08-24T02:23:02;5.15;;;2.35;;
25938;SDS011;13739;51.172;4.466;2022-08-24T02:25:30;4.93;;;2.50;;
25938;SDS011;13739;51.172;4.466;2022-08-24T02:27:57;4.20;;;3.13;;
25938;SDS011;13739;51.172;4.466;2022-08-24T02:30:24;6.68;;;2.90;;
25938;SDS011;13739;51.172;4.466;2022-08-24T02:32:50;4.30;;;2.67;;
25938;SDS011;13739;51.172;4.466;2022-08-24T02:35:16;5.40;;;3.20;;
25938;SDS011;13739;51.172;4.466;2022-08-24T02:37:44;4.75;;;2.78;;
25938;SDS011;13739;51.172;4.466;2022-08-24T02:40:10;8.60;;;2.63;;
25938;SDS011;13739;51.172;4.466;2022-08-24T02:42:37;4.47;;;2.90;;
25938;SDS011;13739;51.172;4.466;2022-08-24T02:45:03;6.78;;;3.10;;
25938;SDS011;13739;51.172;4.466;2022-08-24T02:47:29;5.10;;;3.30;;
25938;SDS011;13739;51.172;4.466;2022-08-24T02:49:55;4.05;;;3.10;;
25938;SDS011;13739;51.172;4.466;2022-08-24T02:52:21;5.63;;;3.45;;
25938;SDS011;13739;51.172;4.466;2022-08-24T02:54:47;4.20;;;3.10;;
25938;SDS011;13739;51.172;4.466;2022-08-24T02:57:13;4.10;;;3.30;;
25938;SDS011;13739;51.172;4.466;2022-08-24T02:59:38;7.57;;;3.75;;
25938;SDS011;13739;51.172;4.466;2022-08-24T03:02:04;4.90;;;3.15;;
25938;SDS011;13739;51.172;4.466;2022-08-24T03:04:30;6.10;;;3.05;;
25938;SDS011;13739;51.172;4.466;2022-08-24T03:06:55;4.32;;;3.10;;
25938;SDS011;13739;51.172;4.466;2022-08-24T03:09:21;6.65;;;3.42;;
25938;SDS011;13739;51.172;4.466;2022-08-24T03:11:47;5.88;;;3.67;;
25938;SDS011;13739;51.172;4.466;2022-08-24T03:14:12;6.45;;;3.10;;
25938;SDS011;13739;51.172;4.466;2022-08-24T03:16:39;6.60;;;4.18;;
25938;SDS011;13739;51.172;4.466;2022-08-24T03:19:05;5.65;;;3.50;;
25938;SDS011;13739;51.172;4.466;2022-08-24T03:21:31;6.13;;;3.72;;
25938;SDS011;13739;51.172;4.466;2022-08-24T03:23:57;5.57;;;3.63;;
25938;SDS011;13739;51.172;4.466;2022-08-24T03:26:23;7.32;;;3.70;;
25938;SDS011;13739;51.172;4.466;2022-08-24T03:28:48;4.38;;;3.15;;
25938;SDS011;13739;51.172;4.466;2022-08-24T03:31:15;6.63;;;3.95;;
25938;SDS011;13739;51.172;4.466;2022-08-24T03:33:41;9.63;;;4.07;;
25938;SDS011;13739;51.172;4.466;2022-08-24T03:36:06;6.32;;;3.97;;
25938;SDS011;13739;51.172;4.466;2022-08-24T03:38:32;6.35;;;3.70;;
25938;SDS011;13739;51.172;4.466;2022-08-24T03:40:58;5.50;;;3.58;;
25938;SDS011;13739;51.172;4.466;2022-08-24T03:43:24;6.80;;;4.80;;
25938;SDS011;13739;51.172;4.466;2022-08-24T03:46:08;7.85;;;4.40;;
25938;SDS011;13739;51.172;4.466;2022-08-24T03:48:36;6.57;;;4.10;;
25938;SDS011;13739;51.172;4.466;2022-08-24T03:51:04;8.85;;;4.95;;
25938;SDS011;13739;51.172;4.466;2022-08-24T03:53:38;7.68;;;5.07;;
25938;SDS011;13739;51.172;4.466;2022-08-24T03:56:03;7.63;;;4.68;;
25938;SDS011;13739;51.172;4.466;2022-08-24T03:58:29;8.88;;;5.70;;
25938;SDS011;13739;51.172;4.466;2022-08-24T04:00:58;8.85;;;5.10;;
25938;SDS011;13739;51.172;4.466;2022-08-24T04:03:23;6.68;;;4.75;;
25938;SDS011;13739;51.172;4.466;2022-08-24T04:05:49;8.32;;;4.65;;
25938;SDS011;13739;51.172;4.466;2022-08-24T04:08:14;9.73;;;5.25;;
25938;SDS011;13739;51.172;4.466;2022-08-24T04:10:43;8.23;;;5.28;;
25938;SDS011;13739;51.172;4.466;2022-08-24T04:13:09;9.02;;;5.13;;
25938;SDS011;13739;51.172;4.466;2022-08-24T04:15:37;9.27;;;4.68;;
25938;SDS011;13739;51.172;4.466;2022-08-24T04:18:04;7.55;;;4.72;;
25938;SDS011;13739;51.172;4.466;2022-08-24T04:20:30;7.32;;;4.45;;
25938;SDS011;13739;51.172;4.466;2022-08-24T04:23:00;7.50;;;4.63;;
25938;SDS011;13739;51.172;4.466;2022-08-24T04:25:26;6.07;;;4.10;;
25938;SDS011;13739;51.172;4.466;2022-08-24T04:27:52;5.88;;;4.18;;
25938;SDS011;13739;51.172;4.466;2022-08-24T04:30:18;6.70;;;3.90;;
25938;SDS011;13739;51.172;4.466;2022-08-24T04:32:43;6.35;;;4.32;;
25938;SDS011;13739;51.172;4.466;2022-08-24T04:35:12;7.95;;;4.68;;
25938;SDS011;13739;51.172;4.466;2022-08-24T04:37:38;7.93;;;4.95;;
25938;SDS011;13739;51.172;4.466;2022-08-24T04:40:03;8.77;;;4.75;;
25938;SDS011;13739;51.172;4.466;2022-08-24T04:42:32;8.50;;;4.90;;
25938;SDS011;13739;51.172;4.466;2022-08-24T04:44:57;7.20;;;4.28;;
25938;SDS011;13739;51.172;4.466;2022-08-24T04:47:23;6.30;;;3.53;;
25938;SDS011;13739;51.172;4.466;2022-08-24T04:49:51;7.95;;;4.28;;
25938;SDS011;13739;51.172;4.466;2022-08-24T04:52:17;6.93;;;4.05;;
25938;SDS011;13739;51.172;4.466;2022-08-24T04:54:43;5.65;;;3.92;;
25938;SDS011;13739;51.172;4.466;2022-08-24T04:57:08;7.25;;;4.28;;
25938;SDS011;13739;51.172;4.466;2022-08-24T04:59:34;9.88;;;4.45;;
25938;SDS011;13739;51.172;4.466;2022-08-24T05:02:00;10.02;;;5.07;;
25938;SDS011;13739;51.172;4.466;2022-08-24T05:04:25;9.20;;;4.88;;
25938;SDS011;13739;51.172;4.466;2022-08-24T05:06:51;7.13;;;4.28;;
25938;SDS011;13739;51.172;4.466;2022-08-24T05:09:17;5.57;;;3.58;;
25938;SDS011;13739;51.172;4.466;2022-08-24T05:11:44;5.90;;;3.92;;
25938;SDS011;13739;51.172;4.466;2022-08-24T05:14:15;7.72;;;3.80;;
25938;SDS011;13739;51.172;4.466;2022-08-24T05:16:40;5.47;;;3.95;;
25938;SDS011;13739;51.172;4.466;2022-08-24T05:19:06;8.00;;;3.97;;
25938;SDS011;13739;51.172;4.466;2022-08-24T05:21:31;5.88;;;3.97;;
25938;SDS011;13739;51.172;4.466;2022-08-24T05:23:57;5.72;;;3.58;;
25938;SDS011;13739;51.172;4.466;2022-08-24T05:26:24;6.25;;;3.70;;
25938;SDS011;13739;51.172;4.466;2022-08-24T05:28:52;7.35;;;4.10;;
25938;SDS011;13739;51.172;4.466;2022-08-24T05:31:23;6.68;;;4.38;;
25938;SDS011;13739;51.172;4.466;2022-08-24T05:33:50;8.35;;;3.92;;
25938;SDS011;13739;51.172;4.466;2022-08-24T05:36:21;7.15;;;4.35;;
25938;SDS011;13739;51.172;4.466;2022-08-24T05:38:49;4.93;;;3.60;;
25938;SDS011;13739;51.172;4.466;2022-08-24T05:41:17;9.68;;;3.50;;
25938;SDS011;13739;51.172;4.466;2022-08-24T05:43:43;5.70;;;3.45;;
25938;SDS011;13739;51.172;4.466;2022-08-24T05:46:09;5.50;;;3.30;;
25938;SDS011;13739;51.172;4.466;2022-08-24T05:48:35;4.80;;;3.60;;
25938;SDS011;13739;51.172;4.466;2022-08-24T05:51:01;5.45;;;3.80;;
25938;SDS011;13739;51.172;4.466;2022-08-24T05:53:28;6.32;;;3.70;;
25938;SDS011;13739;51.172;4.466;2022-08-24T05:55:54;7.95;;;4.60;;
25938;SDS011;13739;51.172;4.466;2022-08-24T05:58:20;9.65;;;4.85;;
25938;SDS011;13739;51.172;4.466;2022-08-24T06:00:45;6.43;;;4.20;;
25938;SDS011;13739;51.172;4.466;2022-08-24T06:03:12;9.23;;;5.07;;
25938;SDS011;13739;51.172;4.466;2022-08-24T06:05:39;10.15;;;5.95;;
25938;SDS011;13739;51.172;4.466;2022-08-24T06:08:06;10.93;;;6.80;;
25938;SDS011;13739;51.172;4.466;2022-08-24T06:10:37;13.70;;;8.43;;
25938;SDS011;13739;51.172;4.466;2022-08-24T06:13:04;16.50;;;9.60;;
25938;SDS011;13739;51.172;4.466;2022-08-24T06:15:31;15.70;;;9.00;;
25938;SDS011;13739;51.172;4.466;2022-08-24T06:17:57;14.05;;;8.85;;
25938;SDS011;13739;51.172;4.466;2022-08-24T06:20:22;13.98;;;8.70;;
25938;SDS011;13739;51.172;4.466;2022-08-24T06:22:48;18.58;;;9.27;;
25938;SDS011;13739;51.172;4.466;2022-08-24T06:25:14;13.63;;;8.68;;
25938;SDS011;13739;51.172;4.466;2022-08-24T06:27:58;17.63;;;9.55;;
25938;SDS011;13739;51.172;4.466;2022-08-24T06:30:23;14.10;;;8.93;;
25938;SDS011;13739;51.172;4.466;2022-08-24T06:32:49;17.58;;;10.82;;
25938;SDS011;13739;51.172;4.466;2022-08-24T06:35:15;18.08;;;11.35;;
25938;SDS011;13739;51.172;4.466;2022-08-24T06:37:40;21.10;;;12.25;;
25938;SDS011;13739;51.172;4.466;2022-08-24T06:40:07;18.63;;;10.10;;
25938;SDS011;13739;51.172;4.466;2022-08-24T06:42:34;20.90;;;12.18;;
25938;SDS011;13739;51.172;4.466;2022-08-24T06:45:00;23.10;;;12.90;;
25938;SDS011;13739;51.172;4.466;2022-08-24T06:47:27;20.42;;;12.07;;
25938;SDS011;13739;51.172;4.466;2022-08-24T06:49:52;22.80;;;12.88;;
25938;SDS011;13739;51.172;4.466;2022-08-24T06:52:20;19.05;;;10.77;;
25938;SDS011;13739;51.172;4.466;2022-08-24T06:54:46;19.73;;;12.00;;
25938;SDS011;13739;51.172;4.466;2022-08-24T06:57:12;19.55;;;11.05;;
25938;SDS011;13739;51.172;4.466;2022-08-24T06:59:37;23.90;;;12.18;;
25938;SDS011;13739;51.172;4.466;2022-08-24T07:02:04;20.48;;;12.05;;
25938;SDS011;13739;51.172;4.466;2022-08-24T07:04:31;19.98;;;11.63;;
25938;SDS011;13739;51.172;4.466;2022-08-24T07:06:57;16.00;;;10.30;;
25938;SDS011;13739;51.172;4.466;2022-08-24T07:09:22;16.38;;;9.90;;
25938;SDS011;13739;51.172;4.466;2022-08-24T07:11:51;16.98;;;10.13;;
25938;SDS011;13739;51.172;4.466;2022-08-24T07:14:17;18.95;;;11.05;;
25938;SDS011;13739;51.172;4.466;2022-08-24T07:16:43;24.20;;;11.00;;
25938;SDS011;13739;51.172;4.466;2022-08-24T07:19:09;19.20;;;11.45;;
25938;SDS011;13739;51.172;4.466;2022-08-24T07:21:35;21.90;;;10.75;;
25938;SDS011;13739;51.172;4.466;2022-08-24T07:24:00;16.20;;;9.60;;
25938;SDS011;13739;51.172;4.466;2022-08-24T07:26:29;18.83;;;10.88;;
25938;SDS011;13739;51.172;4.466;2022-08-24T07:28:56;19.38;;;11.52;;
25938;SDS011;13739;51.172;4.466;2022-08-24T07:31:29;20.38;;;10.80;;
25938;SDS011;13739;51.172;4.466;2022-08-24T07:33:56;18.33;;;10.73;;
25938;SDS011;13739;51.172;4.466;2022-08-24T07:36:21;20.40;;;10.75;;
25938;SDS011;13739;51.172;4.466;2022-08-24T07:38:47;20.23;;;11.10;;
25938;SDS011;13739;51.172;4.466;2022-08-24T07:41:13;19.08;;;11.60;;
25938;SDS011;13739;51.172;4.466;2022-08-24T07:43:39;17.85;;;11.07;;
25938;SDS011;13739;51.172;4.466;2022-08-24T07:46:05;17.75;;;10.52;;
25938;SDS011;13739;51.172;4.466;2022-08-24T07:48:32;20.65;;;11.32;;
25938;SDS011;13739;51.172;4.466;2022-08-24T07:51:05;19.92;;;11.35;;
25938;SDS011;13739;51.172;4.466;2022-08-24T07:53:34;21.55;;;12.93;;
25938;SDS011;13739;51.172;4.466;2022-08-24T07:56:00;18.85;;;12.13;;
25938;SDS011;13739;51.172;4.466;2022-08-24T07:58:26;20.23;;;12.38;;
25938;SDS011;13739;51.172;4.466;2022-08-24T08:00:51;19.35;;;12.45;;
25938;SDS011;13739;51.172;4.466;2022-08-24T08:03:17;18.42;;;11.88;;
25938;SDS011;13739;51.172;4.466;2022-08-24T08:05:43;18.13;;;11.35;;
25938;SDS011;13739;51.172;4.466;2022-08-24T08:08:09;8.52;;;5.25;;
25938;SDS011;13739;51.172;4.466;2022-08-24T08:10:36;12.43;;;7.78;;
25938;SDS011;13739;51.172;4.466;2022-08-24T08:13:02;10.20;;;6.60;;
25938;SDS011;13739;51.172;4.466;2022-08-24T08:15:29;9.85;;;5.43;;
25938;SDS011;13739;51.172;4.466;2022-08-24T08:17:55;12.80;;;6.50;;
25938;SDS011;13739;51.172;4.466;2022-08-24T08:20:21;13.70;;;6.40;;
25938;SDS011;13739;51.172;4.466;2022-08-24T08:22:47;13.55;;;6.88;;
25938;SDS011;13739;51.172;4.466;2022-08-24T08:25:31;15.35;;;7.25;;
25938;SDS011;13739;51.172;4.466;2022-08-24T08:27:58;12.70;;;7.68;;
25938;SDS011;13739;51.172;4.466;2022-08-24T08:30:24;9.07;;;5.85;;
25938;SDS011;13739;51.172;4.466;2022-08-24T08:32:50;9.73;;;6.60;;
25938;SDS011;13739;51.172;4.466;2022-08-24T08:35:15;8.73;;;4.65;;
25938;SDS011;13739;51.172;4.466;2022-08-24T08:37:41;8.30;;;5.20;;
25938;SDS011;13739;51.172;4.466;2022-08-24T08:40:07;9.77;;;5.05;;
25938;SDS011;13739;51.172;4.466;2022-08-24T08:42:47;8.07;;;4.70;;
25938;SDS011;13739;51.172;4.466;2022-08-24T08:45:43;7.18;;;4.65;;
25938;SDS011;13739;51.172;4.466;2022-08-24T08:48:31;8.35;;;3.97;;
25938;SDS011;13739;51.172;4.466;2022-08-24T09:02:40;5.05;;;3.30;;
25938;SDS011;13739;51.172;4.466;2022-08-24T09:08:00;7.03;;;3.28;;
25938;SDS011;13739;51.172;4.466;2022-08-24T09:18:57;2.90;;;2.00;;
25938;SDS011;13739;51.172;4.466;2022-08-24T09:24:07;4.03;;;1.77;;
25938;SDS011;13739;51.172;4.466;2022-08-24T09:29:22;3.10;;;2.00;;
25938;SDS011;13739;51.172;4.466;2022-08-24T09:40:24;5.32;;;2.70;;
25938;SDS011;13739;51.172;4.466;2022-08-24T09:56:57;5.18;;;3.10;;
25938;SDS011;13739;51.172;4.466;2022-08-24T09:59:47;7.35;;;3.72;;
25938;SDS011;13739;51.172;4.466;2022-08-24T10:02:57;6.55;;;4.28;;
25938;SDS011;13739;51.172;4.466;2022-08-24T10:44:25;7.82;;;4.72;;
25938;SDS011;13739;51.172;4.466;2022-08-24T10:47:00;5.30;;;3.45;;
25938;SDS011;13739;51.172;4.466;2022-08-24T10:55:10;4.05;;;2.55;;
25938;SDS011;13739;51.172;4.466;2022-08-24T11:00:34;5.90;;;3.67;;
25938;SDS011;13739;51.172;4.466;2022-08-24T11:03:16;5.75;;;3.22;;
25938;SDS011;13739;51.172;4.466;2022-08-24T11:08:17;5.07;;;3.55;;
25938;SDS011;13739;51.172;4.466;2022-08-24T11:10:45;4.07;;;3.42;;
25938;SDS011;13739;51.172;4.466;2022-08-24T11:13:26;4.28;;;3.08;;
25938;SDS011;13739;51.172;4.466;2022-08-24T11:15:53;5.82;;;2.83;;
25938;SDS011;13739;51.172;4.466;2022-08-24T11:18:24;6.60;;;2.17;;
25938;SDS011;13739;51.172;4.466;2022-08-24T11:24:24;7.10;;;2.60;;
25938;SDS011;13739;51.172;4.466;2022-08-24T11:27:06;4.88;;;2.75;;
25938;SDS011;13739;51.172;4.466;2022-08-24T11:37:49;3.33;;;1.95;;
25938;SDS011;13739;51.172;4.466;2022-08-24T11:40:20;4.47;;;1.70;;
25938;SDS011;13739;51.172;4.466;2022-08-24T11:42:56;2.42;;;1.60;;
25938;SDS011;13739;51.172;4.466;2022-08-24T11:46:02;3.20;;;1.52;;
25938;SDS011;13739;51.172;4.466;2022-08-24T11:54:12;3.75;;;1.20;;
25938;SDS011;13739;51.172;4.466;2022-08-24T11:59:36;1.75;;;1.08;;
25938;SDS011;13739;51.172;4.466;2022-08-24T12:02:23;2.35;;;1.30;;
25938;SDS011;13739;51.172;4.466;2022-08-24T12:13:33;1.63;;;1.10;;
25938;SDS011;13739;51.172;4.466;2022-08-24T12:21:39;2.47;;;1.20;;
25938;SDS011;13739;51.172;4.466;2022-08-24T12:24:17;3.72;;;1.02;;
25938;SDS011;13739;51.172;4.466;2022-08-24T12:26:49;2.75;;;1.20;;
25938;SDS011;13739;51.172;4.466;2022-08-24T12:29:25;1.33;;;0.98;;
25938;SDS011;13739;51.172;4.466;2022-08-24T12:31:56;3.20;;;1.05;;
25938;SDS011;13739;51.172;4.466;2022-08-24T12:39:57;2.63;;;1.02;;
25938;SDS011;13739;51.172;4.466;2022-08-24T12:42:43;3.42;;;1.00;;
25938;SDS011;13739;51.172;4.466;2022-08-24T12:45:15;1.65;;;1.20;;
25938;SDS011;13739;51.172;4.466;2022-08-24T12:47:48;2.97;;;0.93;;
25938;SDS011;13739;51.172;4.466;2022-08-24T12:56:06;1.92;;;1.13;;
25938;SDS011;13739;51.172;4.466;2022-08-24T12:59:06;3.35;;;1.08;;
25938;SDS011;13739;51.172;4.466;2022-08-24T13:01:46;1.38;;;0.90;;
25938;SDS011;13739;51.172;4.466;2022-08-24T13:09:42;3.60;;;1.02;;
25938;SDS011;13739;51.172;4.466;2022-08-24T13:17:59;3.78;;;1.30;;
25938;SDS011;13739;51.172;4.466;2022-08-24T13:33:32;1.58;;;1.20;;
25938;SDS011;13739;51.172;4.466;2022-08-24T13:39:50;3.00;;;1.30;;
25938;SDS011;13739;51.172;4.466;2022-08-24T13:45:19;2.22;;;1.50;;
25938;SDS011;13739;51.172;4.466;2022-08-24T13:47:57;1.67;;;1.10;;
25938;SDS011;13739;51.172;4.466;2022-08-24T14:12:25;2.67;;;1.50;;
25938;SDS011;13739;51.172;4.466;2022-08-24T14:21:31;2.33;;;1.50;;
25938;SDS011;13739;51.172;4.466;2022-08-24T14:24:24;2.47;;;1.20;;
25938;SDS011;13739;51.172;4.466;2022-08-24T14:27:41;3.75;;;1.35;;
25938;SDS011;13739;51.172;4.466;2022-08-24T14:32:45;2.67;;;1.33;;
25938;SDS011;13739;51.172;4.466;2022-08-24T14:49:33;2.97;;;1.50;;
25938;SDS011;13739;51.172;4.466;2022-08-24T14:52:06;2.45;;;1.45;;
25938;SDS011;13739;51.172;4.466;2022-08-24T14:57:20;2.20;;;1.48;;
25938;SDS011;13739;51.172;4.466;2022-08-24T14:59:55;2.20;;;1.48;;
25938;SDS011;13739;51.172;4.466;2022-08-24T15:08:01;4.07;;;1.30;;
25938;SDS011;13739;51.172;4.466;2022-08-24T15:10:44;3.47;;;1.40;;
25938;SDS011;13739;51.172;4.466;2022-08-24T15:19:07;4.65;;;1.30;;
25938;SDS011;13739;51.172;4.466;2022-08-24T15:21:55;4.03;;;1.38;;
25938;SDS011;13739;51.172;4.466;2022-08-24T15:30:22;2.05;;;1.20;;
25938;SDS011;13739;51.172;4.466;2022-08-24T15:33:07;1.85;;;1.30;;
25938;SDS011;13739;51.172;4.466;2022-08-24T15:35:46;3.20;;;1.50;;
25938;SDS011;13739;51.172;4.466;2022-08-24T15:38:20;1.60;;;1.40;;
25938;SDS011;13739;51.172;4.466;2022-08-24T15:40:49;1.48;;;1.38;;
25938;SDS011;13739;51.172;4.466;2022-08-24T15:43:18;2.97;;;1.30;;
25938;SDS011;13739;51.172;4.466;2022-08-24T15:45:45;5.70;;;1.52;;
25938;SDS011;13739;51.172;4.466;2022-08-24T15:48:15;2.58;;;1.65;;
25938;SDS011;13739;51.172;4.466;2022-08-24T15:50:44;3.03;;;1.50;;
25938;SDS011;13739;51.172;4.466;2022-08-24T15:58:44;3.70;;;1.80;;
25938;SDS011;13739;51.172;4.466;2022-08-24T16:03:56;2.72;;;1.67;;
25938;SDS011;13739;51.172;4.466;2022-08-24T16:11:39;3.25;;;1.58;;
25938;SDS011;13739;51.172;4.466;2022-08-24T16:16:52;2.75;;;1.63;;
25938;SDS011;13739;51.172;4.466;2022-08-24T16:19:36;6.70;;;1.77;;
25938;SDS011;13739;51.172;4.466;2022-08-24T16:22:06;4.15;;;1.75;;
25938;SDS011;13739;51.172;4.466;2022-08-24T16:24:39;3.17;;;2.10;;
25938;SDS011;13739;51.172;4.466;2022-08-24T16:27:10;2.33;;;1.73;;
25938;SDS011;13739;51.172;4.466;2022-08-24T16:32:11;7.20;;;1.77;;
25938;SDS011;13739;51.172;4.466;2022-08-24T16:34:37;2.53;;;1.67;;
25938;SDS011;13739;51.172;4.466;2022-08-24T16:37:05;4.07;;;1.58;;
25938;SDS011;13739;51.172;4.466;2022-08-24T16:39:31;4.20;;;1.60;;
25938;SDS011;13739;51.172;4.466;2022-08-24T16:42:01;2.08;;;1.50;;
25938;SDS011;13739;51.172;4.466;2022-08-24T16:44:32;3.95;;;1.70;;
25938;SDS011;13739;51.172;4.466;2022-08-24T16:47:00;1.98;;;1.60;;
25938;SDS011;13739;51.172;4.466;2022-08-24T16:49:26;2.70;;;1.60;;
25938;SDS011;13739;51.172;4.466;2022-08-24T16:51:52;2.20;;;1.50;;
25938;SDS011;13739;51.172;4.466;2022-08-24T16:54:18;3.88;;;1.90;;
25938;SDS011;13739;51.172;4.466;2022-08-24T16:56:44;4.15;;;1.80;;
25938;SDS011;13739;51.172;4.466;2022-08-24T16:59:18;2.47;;;1.65;;
25938;SDS011;13739;51.172;4.466;2022-08-24T17:01:48;2.13;;;1.70;;
25938;SDS011;13739;51.172;4.466;2022-08-24T17:04:14;4.03;;;1.60;;
25938;SDS011;13739;51.172;4.466;2022-08-24T17:06:40;2.15;;;1.67;;
25938;SDS011;13739;51.172;4.466;2022-08-24T17:09:06;1.73;;;1.30;;
25938;SDS011;13739;51.172;4.466;2022-08-24T17:11:32;2.15;;;1.63;;
25938;SDS011;13739;51.172;4.466;2022-08-24T17:13:58;2.83;;;1.58;;
25938;SDS011;13739;51.172;4.466;2022-08-24T17:16:24;2.30;;;1.75;;
25938;SDS011;13739;51.172;4.466;2022-08-24T17:18:50;7.07;;;2.33;;
25938;SDS011;13739;51.172;4.466;2022-08-24T17:21:16;3.30;;;1.77;;
25938;SDS011;13739;51.172;4.466;2022-08-24T17:23:42;2.30;;;1.50;;
25938;SDS011;13739;51.172;4.466;2022-08-24T17:26:09;4.57;;;1.98;;
25938;SDS011;13739;51.172;4.466;2022-08-24T17:28:38;2.38;;;1.50;;
25938;SDS011;13739;51.172;4.466;2022-08-24T17:31:07;2.45;;;1.58;;
25938;SDS011;13739;51.172;4.466;2022-08-24T17:33:33;3.80;;;1.95;;
25938;SDS011;13739;51.172;4.466;2022-08-24T17:36:00;3.25;;;1.70;;
25938;SDS011;13739;51.172;4.466;2022-08-24T17:38:26;4.70;;;1.95;;
25938;SDS011;13739;51.172;4.466;2022-08-24T17:40:54;3.65;;;1.77;;
25938;SDS011;13739;51.172;4.466;2022-08-24T17:43:19;2.65;;;1.58;;
25938;SDS011;13739;51.172;4.466;2022-08-24T17:45:45;2.55;;;1.70;;
25938;SDS011;13739;51.172;4.466;2022-08-24T17:48:12;7.18;;;1.67;;
25938;SDS011;13739;51.172;4.466;2022-08-24T17:50:44;2.65;;;1.58;;
25938;SDS011;13739;51.172;4.466;2022-08-24T17:53:11;3.33;;;1.90;;
25938;SDS011;13739;51.172;4.466;2022-08-24T17:55:36;2.60;;;1.77;;
25938;SDS011;13739;51.172;4.466;2022-08-24T17:58:02;1.75;;;1.50;;
25938;SDS011;13739;51.172;4.466;2022-08-24T18:00:28;2.85;;;1.65;;
25938;SDS011;13739;51.172;4.466;2022-08-24T18:02:53;2.80;;;1.67;;
25938;SDS011;13739;51.172;4.466;2022-08-24T18:05:19;1.83;;;1.50;;
25938;SDS011;13739;51.172;4.466;2022-08-24T18:07:47;2.67;;;1.65;;
25938;SDS011;13739;51.172;4.466;2022-08-24T18:10:16;2.67;;;1.88;;
25938;SDS011;13739;51.172;4.466;2022-08-24T18:12:47;3.70;;;1.55;;
25938;SDS011;13739;51.172;4.466;2022-08-24T18:15:13;4.38;;;1.77;;
25938;SDS011;13739;51.172;4.466;2022-08-24T18:17:39;4.22;;;1.80;;
25938;SDS011;13739;51.172;4.466;2022-08-24T18:20:09;3.92;;;1.90;;
25938;SDS011;13739;51.172;4.466;2022-08-24T18:22:36;2.20;;;1.65;;
25938;SDS011;13739;51.172;4.466;2022-08-24T18:25:12;3.10;;;1.75;;
25938;SDS011;13739;51.172;4.466;2022-08-24T18:27:40;2.00;;;1.45;;
25938;SDS011;13739;51.172;4.466;2022-08-24T18:30:08;5.72;;;3.00;;
25938;SDS011;13739;51.172;4.466;2022-08-24T18:32:44;1.90;;;1.50;;
25938;SDS011;13739;51.172;4.466;2022-08-24T18:35:10;2.65;;;1.73;;
25938;SDS011;13739;51.172;4.466;2022-08-24T18:37:36;2.92;;;1.95;;
25938;SDS011;13739;51.172;4.466;2022-08-24T18:40:03;2.35;;;1.80;;
25938;SDS011;13739;51.172;4.466;2022-08-24T18:42:30;4.40;;;1.90;;
25938;SDS011;13739;51.172;4.466;2022-08-24T18:44:56;3.65;;;1.80;;
25938;SDS011;13739;51.172;4.466;2022-08-24T18:47:25;2.95;;;1.90;;
25938;SDS011;13739;51.172;4.466;2022-08-24T18:49:50;3.08;;;1.98;;
25938;SDS011;13739;51.172;4.466;2022-08-24T18:52:16;3.88;;;2.00;;
25938;SDS011;13739;51.172;4.466;2022-08-24T18:54:43;4.03;;;2.22;;
25938;SDS011;13739;51.172;4.466;2022-08-24T18:57:11;3.72;;;2.30;;
25938;SDS011;13739;51.172;4.466;2022-08-24T18:59:38;4.43;;;2.10;;
25938;SDS011;13739;51.172;4.466;2022-08-24T19:02:11;3.22;;;2.10;;
25938;SDS011;13739;51.172;4.466;2022-08-24T19:04:54;3.08;;;1.90;;
25938;SDS011;13739;51.172;4.466;2022-08-24T19:07:25;3.58;;;1.77;;
25938;SDS011;13739;51.172;4.466;2022-08-24T19:09:52;4.72;;;2.33;;
25938;SDS011;13739;51.172;4.466;2022-08-24T19:12:17;3.08;;;1.88;;
25938;SDS011;13739;51.172;4.466;2022-08-24T19:14:44;2.78;;;2.00;;
25938;SDS011;13739;51.172;4.466;2022-08-24T19:17:11;3.83;;;2.92;;
25938;SDS011;13739;51.172;4.466;2022-08-24T19:19:38;3.83;;;1.70;;
25938;SDS011;13739;51.172;4.466;2022-08-24T19:22:04;5.45;;;1.92;;